sensor_id;sensor_type;location;lat;lon;timestamp;pressure;altitude;pressure_sealevel;temperature;humidity
19457;BME280;9867;48.094;11.478;2023-07-22T00:00:03;95216.25;;;17.12;100.00
19457;BME280;9867;48.094;11.478;2023-07-22T00:02:39;95223.19;;;17.23;100.00
19457;BME280;9867;48.094;11.478;2023-07-22T00:05:07;95215.06;;;17.36;100.00
19457;BME280;9867;48.094;11.478;2023-07-22T00:07:38;95226.84;;;17.27;100.00
19457;BME280;9867;48.094;11.478;2023-07-22T00:10:07;95219.78;;;17.06;100.00
19457;BME280;9867;48.094;11.478;2023-07-22T00:12:35;95213.25;;;17.03;100.00
19457;BME280;9867;48.094;11.478;2023-07-22T00:15:04;95210.63;;;16.87;100.00
19457;BME280;9867;48.094;11.478;2023-07-22T00:17:32;95209.38;;;16.61;100.00
19457;BME280;9867;48.094;11.478;2023-07-22T00:20:00;95216.84;;;17.02;100.00
19457;BME280;9867;48.094;11.478;2023-07-22T00:22:31;95216.94;;;16.91;100.00
19457;BME280;9867;48.094;11.478;2023-07-22T00:25:00;95213.78;;;16.60;100.00
19457;BME280;9867;48.094;11.478;2023-07-22T00:27:28;95216.41;;;16.77;100.00
19457;BME280;9867;48.094;11.478;2023-07-22T00:29:56;95219.19;;;16.87;100.00
19457;BME280;9867;48.094;11.478;2023-07-22T00:32:24;95199.63;;;16.80;100.00
19457;BME280;9867;48.094;11.478;2023-07-22T00:34:52;95203.31;;;16.84;100.00
19457;BME280;9867;48.094;11.478;2023-07-22T00:37:20;95198.28;;;16.77;100.00
19457;BME280;9867;48.094;11.478;2023-07-22T00:39:48;95195.16;;;16.75;100.00
19457;BME280;9867;48.094;11.478;2023-07-22T00:42:18;95198.25;;;16.89;100.00
19457;BME280;9867;48.094;11.478;2023-07-22T00:44:47;95193.66;;;16.79;100.00
19457;BME280;9867;48.094;11.478;2023-07-22T00:47:15;95187.84;;;16.72;100.00
19457;BME280;9867;48.094;11.478;2023-07-22T00:49:47;95181.34;;;16.69;100.00
19457;BME280;9867;48.094;11.478;2023-07-22T00:52:15;95194.44;;;16.80;100.00
19457;BME280;9867;48.094;11.478;2023-07-22T00:54:44;95182.38;;;16.85;100.00
19457;BME280;9867;48.094;11.478;2023-07-22T00:57:12;95185.50;;;16.87;100.00
19457;BME280;9867;48.094;11.478;2023-07-22T00:59:42;95173.91;;;16.90;100.00
19457;BME280;9867;48.094;11.478;2023-07-22T01:02:10;95188.09;;;16.87;100.00
19457;BME280;9867;48.094;11.478;2023-07-22T01:04:38;95174.69;;;16.90;100.00
19457;BME280;9867;48.094;11.478;2023-07-22T01:07:07;95166.13;;;16.90;100.00
19457;BME280;9867;48.094;11.478;2023-07-22T01:09:37;95167.13;;;16.72;100.00
19457;BME280;9867;48.094;11.478;2023-07-22T01:12:06;95159.81;;;16.41;100.00
19457;BME280;9867;48.094;11.478;2023-07-22T01:14:36;95164.88;;;16.35;100.00
19457;BME280;9867;48.094;11.478;2023-07-22T01:17:08;95160.66;;;16.29;100.00
19457;BME280;9867;48.094;11.478;2023-07-22T01:19:36;95168.69;;;16.16;100.00
19457;BME280;9867;48.094;11.478;2023-07-22T01:22:05;95169.59;;;16.10;100.00
19457;BME280;9867;48.094;11.478;2023-07-22T01:24:36;95161.97;;;16.03;100.00
19457;BME280;9867;48.094;11.478;2023-07-22T01:27:05;95166.91;;;16.05;100.00
19457;BME280;9867;48.094;11.478;2023-07-22T01:29:34;95169.81;;;16.09;100.00
19457;BME280;9867;48.094;11.478;2023-07-22T01:32:03;95175.25;;;15.95;100.00
19457;BME280;9867;48.094;11.478;2023-07-22T01:34:32;95172.72;;;16.24;100.00
19457;BME280;9867;48.094;11.478;2023-07-22T01:36:59;95169.34;;;16.12;100.00
19457;BME280;9867;48.094;11.478;2023-07-22T01:39:27;95166.56;;;16.42;100.00
19457;BME280;9867;48.094;11.478;2023-07-22T01:41:57;95164.00;;;16.30;100.00
19457;BME280;9867;48.094;11.478;2023-07-22T01:44:25;95174.41;;;16.18;100.00
19457;BME280;9867;48.094;11.478;2023-07-22T01:46:53;95179.78;;;16.28;100.00
19457;BME280;9867;48.094;11.478;2023-07-22T01:49:21;95186.28;;;16.31;100.00
19457;BME280;9867;48.094;11.478;2023-07-22T01:51:51;95171.25;;;16.16;100.00
19457;BME280;9867;48.094;11.478;2023-07-22T01:54:19;95179.53;;;16.58;100.00
19457;BME280;9867;48.094;11.478;2023-07-22T01:56:47;95181.25;;;16.81;100.00
19457;BME280;9867;48.094;11.478;2023-07-22T01:59:16;95174.97;;;16.77;100.00
19457;BME280;9867;48.094;11.478;2023-07-22T02:01:44;95174.69;;;16.62;100.00
19457;BME280;9867;48.094;11.478;2023-07-22T02:04:12;95185.72;;;16.57;100.00
19457;BME280;9867;48.094;11.478;2023-07-22T02:06:41;95175.53;;;16.51;100.00
19457;BME280;9867;48.094;11.478;2023-07-22T02:09:09;95178.50;;;16.43;100.00
19457;BME280;9867;48.094;11.478;2023-07-22T02:11:40;95177.13;;;16.52;100.00
19457;BME280;9867;48.094;11.478;2023-07-22T02:14:08;95179.47;;;16.53;100.00
19457;BME280;9867;48.094;11.478;2023-07-22T02:16:37;95178.19;;;16.56;100.00
19457;BME280;9867;48.094;11.478;2023-07-22T02:19:05;95189.28;;;16.51;100.00
19457;BME280;9867;48.094;11.478;2023-07-22T02:21:40;95181.00;;;16.54;100.00
19457;BME280;9867;48.094;11.478;2023-07-22T02:24:09;95183.78;;;16.36;100.00
19457;BME280;9867;48.094;11.478;2023-07-22T02:26:38;95192.41;;;16.25;100.00
19457;BME280;9867;48.094;11.478;2023-07-22T02:29:06;95192.63;;;16.23;100.00
19457;BME280;9867;48.094;11.478;2023-07-22T02:31:34;95184.53;;;16.20;100.00
19457;BME280;9867;48.094;11.478;2023-07-22T02:34:04;95182.06;;;16.13;100.00
19457;BME280;9867;48.094;11.478;2023-07-22T02:36:32;95175.97;;;16.19;100.00
19457;BME280;9867;48.094;11.478;2023-07-22T02:39:00;95173.91;;;16.05;100.00
19457;BME280;9867;48.094;11.478;2023-07-22T02:41:30;95187.03;;;16.15;100.00
19457;BME280;9867;48.094;11.478;2023-07-22T02:43:58;95190.28;;;16.10;100.00
19457;BME280;9867;48.094;11.478;2023-07-22T02:46:26;95180.16;;;16.09;100.00
19457;BME280;9867;48.094;11.478;2023-07-22T02:48:55;95185.09;;;16.22;100.00
19457;BME280;9867;48.094;11.478;2023-07-22T02:51:24;95182.88;;;16.42;100.00
19457;BME280;9867;48.094;11.478;2023-07-22T02:53:52;95179.22;;;16.55;100.00
19457;BME280;9867;48.094;11.478;2023-07-22T02:56:20;95189.44;;;16.33;100.00
19457;BME280;9867;48.094;11.478;2023-07-22T02:58:51;95191.63;;;16.24;100.00
19457;BME280;9867;48.094;11.478;2023-07-22T03:01:19;95194.75;;;16.26;100.00
19457;BME280;9867;48.094;11.478;2023-07-22T03:03:47;95188.69;;;16.21;100.00
19457;BME280;9867;48.094;11.478;2023-07-22T03:06:15;95194.56;;;16.16;100.00
19457;BME280;9867;48.094;11.478;2023-07-22T03:08:44;95197.91;;;16.28;100.00
19457;BME280;9867;48.094;11.478;2023-07-22T03:11:12;95192.59;;;16.35;100.00
19457;BME280;9867;48.094;11.478;2023-07-22T03:13:40;95192.56;;;16.47;100.00
19457;BME280;9867;48.094;11.478;2023-07-22T03:16:08;95194.13;;;16.48;100.00
19457;BME280;9867;48.094;11.478;2023-07-22T03:18:36;95204.03;;;16.11;100.00
19457;BME280;9867;48.094;11.478;2023-07-22T03:21:06;95197.56;;;15.73;100.00
19457;BME280;9867;48.094;11.478;2023-07-22T03:23:35;95188.91;;;15.79;100.00
19457;BME280;9867;48.094;11.478;2023-07-22T03:26:05;95185.94;;;15.87;100.00
19457;BME280;9867;48.094;11.478;2023-07-22T03:28:33;95182.44;;;16.05;100.00
19457;BME280;9867;48.094;11.478;2023-07-22T03:31:01;95183.84;;;16.24;100.00
19457;BME280;9867;48.094;11.478;2023-07-22T03:33:31;95191.47;;;16.02;100.00
19457;BME280;9867;48.094;11.478;2023-07-22T03:35:59;95190.50;;;16.20;100.00
19457;BME280;9867;48.094;11.478;2023-07-22T03:38:27;95189.84;;;16.13;100.00
19457;BME280;9867;48.094;11.478;2023-07-22T03:40:55;95202.00;;;16.13;100.00
19457;BME280;9867;48.094;11.478;2023-07-22T03:43:24;95200.13;;;15.96;100.00
19457;BME280;9867;48.094;11.478;2023-07-22T03:45:52;95196.75;;;15.96;100.00
19457;BME280;9867;48.094;11.478;2023-07-22T03:48:20;95188.78;;;15.74;100.00
19457;BME280;9867;48.094;11.478;2023-07-22T03:50:48;95200.00;;;15.91;100.00
19457;BME280;9867;48.094;11.478;2023-07-22T03:53:27;95201.59;;;16.04;100.00
19457;BME280;9867;48.094;11.478;2023-07-22T03:55:55;95206.03;;;16.20;100.00
19457;BME280;9867;48.094;11.478;2023-07-22T03:58:25;95208.75;;;16.14;100.00
19457;BME280;9867;48.094;11.478;2023-07-22T04:00:53;95201.75;;;16.14;100.00
19457;BME280;9867;48.094;11.478;2023-07-22T04:03:21;95209.06;;;16.17;100.00
19457;BME280;9867;48.094;11.478;2023-07-22T04:05:58;95203.16;;;16.05;100.00
19457;BME280;9867;48.094;11.478;2023-07-22T04:08:26;95210.69;;;15.95;100.00
19457;BME280;9867;48.094;11.478;2023-07-22T04:10:55;95220.25;;;16.06;100.00
19457;BME280;9867;48.094;11.478;2023-07-22T04:13:26;95228.56;;;16.08;100.00
19457;BME280;9867;48.094;11.478;2023-07-22T04:15:54;95219.81;;;15.97;100.00
19457;BME280;9867;48.094;11.478;2023-07-22T04:18:22;95224.28;;;16.14;100.00
19457;BME280;9867;48.094;11.478;2023-07-22T04:20:55;95218.22;;;15.96;100.00
19457;BME280;9867;48.094;11.478;2023-07-22T04:23:24;95221.94;;;16.00;100.00
19457;BME280;9867;48.094;11.478;2023-07-22T04:25:52;95218.91;;;15.92;100.00
19457;BME280;9867;48.094;11.478;2023-07-22T04:28:20;95223.63;;;15.95;100.00
19457;BME280;9867;48.094;11.478;2023-07-22T04:30:56;95217.56;;;15.89;100.00
19457;BME280;9867;48.094;11.478;2023-07-22T04:33:26;95213.53;;;15.82;100.00
19457;BME280;9867;48.094;11.478;2023-07-22T04:35:57;95210.66;;;16.07;100.00
19457;BME280;9867;48.094;11.478;2023-07-22T04:38:25;95212.88;;;16.26;100.00
19457;BME280;9867;48.094;11.478;2023-07-22T04:40:53;95217.66;;;16.46;100.00
19457;BME280;9867;48.094;11.478;2023-07-22T04:43:21;95215.81;;;16.58;100.00
19457;BME280;9867;48.094;11.478;2023-07-22T04:45:49;95206.22;;;16.59;100.00
19457;BME280;9867;48.094;11.478;2023-07-22T04:48:19;95225.47;;;16.75;100.00
19457;BME280;9867;48.094;11.478;2023-07-22T04:50:48;95226.16;;;16.70;100.00
19457;BME280;9867;48.094;11.478;2023-07-22T04:53:17;95238.66;;;16.61;100.00
19457;BME280;9867;48.094;11.478;2023-07-22T04:55:45;95231.00;;;16.66;100.00
19457;BME280;9867;48.094;11.478;2023-07-22T04:58:13;95232.03;;;16.54;100.00
19457;BME280;9867;48.094;11.478;2023-07-22T05:00:41;95223.56;;;16.70;100.00
19457;BME280;9867;48.094;11.478;2023-07-22T05:03:10;95226.09;;;16.82;100.00
19457;BME280;9867;48.094;11.478;2023-07-22T05:05:39;95231.22;;;16.93;100.00
19457;BME280;9867;48.094;11.478;2023-07-22T05:08:07;95231.78;;;16.95;100.00
19457;BME280;9867;48.094;11.478;2023-07-22T05:10:36;95230.13;;;17.06;100.00
19457;BME280;9867;48.094;11.478;2023-07-22T05:13:04;95238.13;;;16.88;100.00
19457;BME280;9867;48.094;11.478;2023-07-22T05:15:32;95243.72;;;16.96;100.00
19457;BME280;9867;48.094;11.478;2023-07-22T05:18:00;95247.50;;;17.05;100.00
19457;BME280;9867;48.094;11.478;2023-07-22T05:20:28;95250.97;;;17.28;100.00
19457;BME280;9867;48.094;11.478;2023-07-22T05:22:58;95246.66;;;17.17;100.00
19457;BME280;9867;48.094;11.478;2023-07-22T05:25:26;95245.97;;;17.21;100.00
19457;BME280;9867;48.094;11.478;2023-07-22T05:27:54;95245.63;;;17.34;100.00
19457;BME280;9867;48.094;11.478;2023-07-22T05:30:22;95238.09;;;17.33;100.00
19457;BME280;9867;48.094;11.478;2023-07-22T05:33:02;95236.19;;;17.79;100.00
19457;BME280;9867;48.094;11.478;2023-07-22T05:35:30;95250.88;;;18.06;100.00
19457;BME280;9867;48.094;11.478;2023-07-22T05:37:59;95253.81;;;17.93;100.00
19457;BME280;9867;48.094;11.478;2023-07-22T05:40:30;95252.72;;;17.72;100.00
19457;BME280;9867;48.094;11.478;2023-07-22T05:42:58;95247.06;;;17.59;100.00
19457;BME280;9867;48.094;11.478;2023-07-22T05:45:26;95251.94;;;17.55;100.00
19457;BME280;9867;48.094;11.478;2023-07-22T05:47:54;95254.53;;;17.55;100.00
19457;BME280;9867;48.094;11.478;2023-07-22T05:50:22;95251.13;;;17.55;100.00
19457;BME280;9867;48.094;11.478;2023-07-22T05:52:51;95259.25;;;17.75;100.00
19457;BME280;9867;48.094;11.478;2023-07-22T05:55:20;95264.47;;;17.97;100.00
19457;BME280;9867;48.094;11.478;2023-07-22T05:57:48;95261.78;;;18.09;100.00
19457;BME280;9867;48.094;11.478;2023-07-22T06:00:16;95264.78;;;18.39;100.00
19457;BME280;9867;48.094;11.478;2023-07-22T06:02:45;95265.97;;;18.31;100.00
19457;BME280;9867;48.094;11.478;2023-07-22T06:05:13;95259.28;;;18.35;100.00
19457;BME280;9867;48.094;11.478;2023-07-22T06:07:41;95270.09;;;18.49;100.00
19457;BME280;9867;48.094;11.478;2023-07-22T06:10:10;95267.16;;;18.62;100.00
19457;BME280;9867;48.094;11.478;2023-07-22T06:12:39;95278.13;;;18.48;100.00
19457;BME280;9867;48.094;11.478;2023-07-22T06:15:09;95277.41;;;18.30;100.00
19457;BME280;9867;48.094;11.478;2023-07-22T06:17:37;95282.88;;;18.12;100.00
19457;BME280;9867;48.094;11.478;2023-07-22T06:20:06;95283.75;;;18.18;100.00
19457;BME280;9867;48.094;11.478;2023-07-22T06:22:34;95283.00;;;18.22;100.00
19457;BME280;9867;48.094;11.478;2023-07-22T06:25:03;95285.50;;;18.34;100.00
19457;BME280;9867;48.094;11.478;2023-07-22T06:27:31;95289.53;;;18.63;100.00
19457;BME280;9867;48.094;11.478;2023-07-22T06:30:01;95298.88;;;18.86;100.00
19457;BME280;9867;48.094;11.478;2023-07-22T06:32:29;95284.34;;;18.63;100.00
19457;BME280;9867;48.094;11.478;2023-07-22T06:34:57;95292.50;;;18.55;100.00
19457;BME280;9867;48.094;11.478;2023-07-22T06:37:30;95287.16;;;18.62;100.00
19457;BME280;9867;48.094;11.478;2023-07-22T06:39:58;95286.59;;;18.82;100.00
19457;BME280;9867;48.094;11.478;2023-07-22T06:42:26;95299.06;;;18.80;100.00
19457;BME280;9867;48.094;11.478;2023-07-22T06:44:54;95301.94;;;19.05;100.00
19457;BME280;9867;48.094;11.478;2023-07-22T06:47:23;95300.06;;;19.27;100.00
19457;BME280;9867;48.094;11.478;2023-07-22T06:49:51;95302.91;;;19.26;100.00
19457;BME280;9867;48.094;11.478;2023-07-22T06:52:19;95305.41;;;18.89;100.00
19457;BME280;9867;48.094;11.478;2023-07-22T06:54:47;95302.53;;;18.90;100.00
19457;BME280;9867;48.094;11.478;2023-07-22T06:57:15;95306.47;;;18.49;100.00
19457;BME280;9867;48.094;11.478;2023-07-22T06:59:43;95296.19;;;18.16;100.00
19457;BME280;9867;48.094;11.478;2023-07-22T07:02:11;95301.97;;;18.45;100.00
19457;BME280;9867;48.094;11.478;2023-07-22T07:04:41;95307.88;;;18.57;100.00
19457;BME280;9867;48.094;11.478;2023-07-22T07:07:09;95309.69;;;18.56;100.00
19457;BME280;9867;48.094;11.478;2023-07-22T07:09:38;95305.03;;;18.36;100.00
19457;BME280;9867;48.094;11.478;2023-07-22T07:12:07;95310.22;;;18.58;100.00
19457;BME280;9867;48.094;11.478;2023-07-22T07:14:36;95308.91;;;18.78;100.00
19457;BME280;9867;48.094;11.478;2023-07-22T07:17:04;95311.59;;;19.10;100.00
19457;BME280;9867;48.094;11.478;2023-07-22T07:19:32;95313.50;;;19.19;100.00
19457;BME280;9867;48.094;11.478;2023-07-22T07:22:02;95317.72;;;18.98;100.00
19457;BME280;9867;48.094;11.478;2023-07-22T07:24:30;95311.53;;;19.04;100.00
19457;BME280;9867;48.094;11.478;2023-07-22T07:26:58;95312.66;;;18.87;100.00
19457;BME280;9867;48.094;11.478;2023-07-22T07:29:26;95318.63;;;19.09;100.00
19457;BME280;9867;48.094;11.478;2023-07-22T07:32:14;95322.28;;;19.40;100.00
19457;BME280;9867;48.094;11.478;2023-07-22T07:34:42;95328.13;;;19.25;100.00
19457;BME280;9867;48.094;11.478;2023-07-22T07:37:11;95320.25;;;18.93;100.00
19457;BME280;9867;48.094;11.478;2023-07-22T07:39:39;95314.16;;;19.04;100.00
19457;BME280;9867;48.094;11.478;2023-07-22T07:42:07;95316.09;;;18.92;100.00
19457;BME280;9867;48.094;11.478;2023-07-22T07:44:35;95315.75;;;19.37;100.00
19457;BME280;9867;48.094;11.478;2023-07-22T07:47:04;95324.38;;;19.43;100.00
19457;BME280;9867;48.094;11.478;2023-07-22T07:49:33;95325.00;;;19.23;100.00
19457;BME280;9867;48.094;11.478;2023-07-22T07:52:01;95322.63;;;19.22;100.00
19457;BME280;9867;48.094;11.478;2023-07-22T07:54:30;95320.97;;;19.11;100.00
19457;BME280;9867;48.094;11.478;2023-07-22T07:56:59;95330.91;;;18.92;100.00
19457;BME280;9867;48.094;11.478;2023-07-22T07:59:27;95332.72;;;19.13;100.00
19457;BME280;9867;48.094;11.478;2023-07-22T08:01:55;95317.19;;;19.23;100.00
19457;BME280;9867;48.094;11.478;2023-07-22T08:04:23;95325.47;;;19.47;100.00
19457;BME280;9867;48.094;11.478;2023-07-22T08:06:51;95328.63;;;19.49;100.00
19457;BME280;9867;48.094;11.478;2023-07-22T08:09:19;95323.00;;;19.30;100.00
19457;BME280;9867;48.094;11.478;2023-07-22T08:11:49;95319.72;;;19.13;100.00
19457;BME280;9867;48.094;11.478;2023-07-22T08:14:17;95318.16;;;19.44;100.00
19457;BME280;9867;48.094;11.478;2023-07-22T08:16:45;95319.38;;;19.58;100.00
19457;BME280;9867;48.094;11.478;2023-07-22T08:19:13;95323.72;;;19.53;100.00
19457;BME280;9867;48.094;11.478;2023-07-22T08:21:41;95320.41;;;19.57;100.00
19457;BME280;9867;48.094;11.478;2023-07-22T08:24:09;95329.47;;;19.87;100.00
19457;BME280;9867;48.094;11.478;2023-07-22T08:26:40;95327.88;;;19.81;100.00
19457;BME280;9867;48.094;11.478;2023-07-22T08:29:09;95317.38;;;19.70;100.00
19457;BME280;9867;48.094;11.478;2023-07-22T08:31:38;95332.75;;;19.72;100.00
19457;BME280;9867;48.094;11.478;2023-07-22T08:34:06;95328.50;;;19.98;100.00
19457;BME280;9867;48.094;11.478;2023-07-22T08:36:34;95324.13;;;20.08;100.00
19457;BME280;9867;48.094;11.478;2023-07-22T08:39:02;95326.25;;;19.74;100.00
19457;BME280;9867;48.094;11.478;2023-07-22T08:41:31;95321.56;;;20.14;100.00
19457;BME280;9867;48.094;11.478;2023-07-22T08:44:00;95313.50;;;20.15;100.00
19457;BME280;9867;48.094;11.478;2023-07-22T08:46:32;95319.78;;;20.19;100.00
19457;BME280;9867;48.094;11.478;2023-07-22T08:49:01;95322.63;;;20.18;100.00
19457;BME280;9867;48.094;11.478;2023-07-22T08:51:31;95312.38;;;20.43;100.00
19457;BME280;9867;48.094;11.478;2023-07-22T08:54:00;95321.84;;;20.54;100.00
19457;BME280;9867;48.094;11.478;2023-07-22T08:56:38;95314.47;;;20.41;96.05
19457;BME280;9867;48.094;11.478;2023-07-22T08:59:07;95319.47;;;20.58;90.61
19457;BME280;9867;48.094;11.478;2023-07-22T09:01:38;95315.81;;;20.49;98.03
19457;BME280;9867;48.094;11.478;2023-07-22T09:04:07;95331.97;;;20.56;100.00
19457;BME280;9867;48.094;11.478;2023-07-22T09:06:36;95319.97;;;20.50;90.94
19457;BME280;9867;48.094;11.478;2023-07-22T09:09:05;95329.03;;;20.99;88.82
19457;BME280;9867;48.094;11.478;2023-07-22T09:11:35;95322.44;;;20.82;82.11
19457;BME280;9867;48.094;11.478;2023-07-22T09:14:03;95322.19;;;20.83;78.38
19457;BME280;9867;48.094;11.478;2023-07-22T09:16:35;95321.66;;;20.76;67.91
19457;BME280;9867;48.094;11.478;2023-07-22T09:19:07;95325.31;;;20.85;70.61
19457;BME280;9867;48.094;11.478;2023-07-22T09:21:35;95318.34;;;21.01;78.77
19457;BME280;9867;48.094;11.478;2023-07-22T09:24:20;95318.66;;;21.20;75.20
19457;BME280;9867;48.094;11.478;2023-07-22T09:26:58;95311.31;;;21.11;74.04
19457;BME280;9867;48.094;11.478;2023-07-22T09:29:34;95312.09;;;21.07;63.56
19457;BME280;9867;48.094;11.478;2023-07-22T09:32:03;95304.63;;;21.46;60.67
19457;BME280;9867;48.094;11.478;2023-07-22T09:34:32;95309.56;;;21.32;59.18
19457;BME280;9867;48.094;11.478;2023-07-22T09:37:00;95316.09;;;21.45;63.21
19457;BME280;9867;48.094;11.478;2023-07-22T09:39:30;95312.69;;;21.50;63.62
19457;BME280;9867;48.094;11.478;2023-07-22T09:41:58;95300.44;;;21.60;66.33
19457;BME280;9867;48.094;11.478;2023-07-22T09:44:30;95299.38;;;21.82;67.53
19457;BME280;9867;48.094;11.478;2023-07-22T09:47:05;95293.91;;;21.78;64.86
19457;BME280;9867;48.094;11.478;2023-07-22T09:49:40;95316.63;;;21.52;68.49
19457;BME280;9867;48.094;11.478;2023-07-22T09:52:09;95300.97;;;21.72;69.89
19457;BME280;9867;48.094;11.478;2023-07-22T09:54:46;95297.84;;;21.70;68.35
19457;BME280;9867;48.094;11.478;2023-07-22T09:57:16;95300.94;;;21.77;61.50
19457;BME280;9867;48.094;11.478;2023-07-22T09:59:44;95301.22;;;21.81;68.12
19457;BME280;9867;48.094;11.478;2023-07-22T10:02:18;95300.91;;;22.23;61.27
19457;BME280;9867;48.094;11.478;2023-07-22T10:04:48;95287.56;;;22.25;58.51
19457;BME280;9867;48.094;11.478;2023-07-22T10:07:19;95297.50;;;22.23;59.01
19457;BME280;9867;48.094;11.478;2023-07-22T10:09:48;95296.25;;;22.10;59.96
19457;BME280;9867;48.094;11.478;2023-07-22T10:12:17;95293.63;;;22.20;61.44
19457;BME280;9867;48.094;11.478;2023-07-22T10:14:45;95295.47;;;21.94;59.94
19457;BME280;9867;48.094;11.478;2023-07-22T10:17:14;95283.66;;;22.32;57.86
19457;BME280;9867;48.094;11.478;2023-07-22T10:19:43;95279.69;;;23.04;55.48
19457;BME280;9867;48.094;11.478;2023-07-22T10:22:14;95285.03;;;23.28;55.71
19457;BME280;9867;48.094;11.478;2023-07-22T10:24:43;95269.78;;;22.96;52.01
19457;BME280;9867;48.094;11.478;2023-07-22T10:27:14;95278.66;;;23.00;51.90
19457;BME280;9867;48.094;11.478;2023-07-22T10:29:45;95268.19;;;23.00;52.47
19457;BME280;9867;48.094;11.478;2023-07-22T10:32:14;95269.88;;;22.81;54.03
19457;BME280;9867;48.094;11.478;2023-07-22T10:34:43;95276.66;;;22.87;54.89
19457;BME280;9867;48.094;11.478;2023-07-22T10:37:13;95273.81;;;22.73;55.77
19457;BME280;9867;48.094;11.478;2023-07-22T10:39:41;95279.00;;;22.89;54.79
19457;BME280;9867;48.094;11.478;2023-07-22T10:42:09;95283.47;;;22.83;55.78
19457;BME280;9867;48.094;11.478;2023-07-22T10:44:51;95274.09;;;23.21;54.58
19457;BME280;9867;48.094;11.478;2023-07-22T10:47:31;95269.72;;;23.45;51.37
19457;BME280;9867;48.094;11.478;2023-07-22T10:50:05;95276.00;;;23.10;53.78
19457;BME280;9867;48.094;11.478;2023-07-22T10:52:43;95268.47;;;23.38;51.30
19457;BME280;9867;48.094;11.478;2023-07-22T10:55:17;95271.22;;;23.62;49.45
19457;BME280;9867;48.094;11.478;2023-07-22T10:57:49;95265.63;;;23.34;50.25
19457;BME280;9867;48.094;11.478;2023-07-22T11:00:19;95253.41;;;23.20;48.35
19457;BME280;9867;48.094;11.478;2023-07-22T11:03:10;95266.22;;;23.21;49.79
19457;BME280;9867;48.094;11.478;2023-07-22T11:05:50;95255.91;;;23.74;49.39
19457;BME280;9867;48.094;11.478;2023-07-22T11:08:39;95255.66;;;23.70;47.20
19457;BME280;9867;48.094;11.478;2023-07-22T11:11:08;95252.75;;;23.72;49.48
19457;BME280;9867;48.094;11.478;2023-07-22T11:13:37;95251.44;;;23.74;49.80
19457;BME280;9867;48.094;11.478;2023-07-22T11:16:11;95237.94;;;23.86;48.60
19457;BME280;9867;48.094;11.478;2023-07-22T11:18:40;95242.09;;;23.63;48.31
19457;BME280;9867;48.094;11.478;2023-07-22T11:21:10;95235.25;;;22.94;49.20
19457;BME280;9867;48.094;11.478;2023-07-22T11:23:39;95244.88;;;23.04;49.12
19457;BME280;9867;48.094;11.478;2023-07-22T11:26:10;95244.97;;;23.28;47.98
19457;BME280;9867;48.094;11.478;2023-07-22T11:28:39;95232.41;;;23.30;47.42
19457;BME280;9867;48.094;11.478;2023-07-22T11:31:08;95231.50;;;23.10;47.92
19457;BME280;9867;48.094;11.478;2023-07-22T11:33:40;95226.75;;;23.46;47.55
19457;BME280;9867;48.094;11.478;2023-07-22T11:36:10;95228.81;;;23.84;46.25
19457;BME280;9867;48.094;11.478;2023-07-22T11:38:40;95223.19;;;23.95;46.20
19457;BME280;9867;48.094;11.478;2023-07-22T11:41:08;95240.91;;;23.79;45.23
19457;BME280;9867;48.094;11.478;2023-07-22T11:43:38;95206.72;;;23.90;46.12
19457;BME280;9867;48.094;11.478;2023-07-22T11:46:06;95215.78;;;23.78;44.41
19457;BME280;9867;48.094;11.478;2023-07-22T11:48:34;95226.47;;;23.82;44.88
19457;BME280;9867;48.094;11.478;2023-07-22T11:51:02;95202.41;;;24.04;45.95
19457;BME280;9867;48.094;11.478;2023-07-22T11:53:32;95211.69;;;23.91;45.23
19457;BME280;9867;48.094;11.478;2023-07-22T11:56:02;95204.38;;;23.88;44.69
19457;BME280;9867;48.094;11.478;2023-07-22T11:58:30;95205.41;;;23.92;44.82
19457;BME280;9867;48.094;11.478;2023-07-22T12:01:06;95207.38;;;23.53;44.43
19457;BME280;9867;48.094;11.478;2023-07-22T12:03:35;95195.13;;;23.72;43.68
19457;BME280;9867;48.094;11.478;2023-07-22T12:06:03;95203.84;;;23.62;45.86
19457;BME280;9867;48.094;11.478;2023-07-22T12:08:33;95190.31;;;23.50;47.00
19457;BME280;9867;48.094;11.478;2023-07-22T12:11:04;95192.44;;;23.53;44.39
19457;BME280;9867;48.094;11.478;2023-07-22T12:13:36;95186.88;;;23.60;45.70
19457;BME280;9867;48.094;11.478;2023-07-22T12:16:05;95176.56;;;23.68;45.06
19457;BME280;9867;48.094;11.478;2023-07-22T12:18:43;95188.78;;;23.78;46.71
19457;BME280;9867;48.094;11.478;2023-07-22T12:21:12;95177.84;;;23.95;45.34
19457;BME280;9867;48.094;11.478;2023-07-22T12:23:41;95174.56;;;24.32;44.14
19457;BME280;9867;48.094;11.478;2023-07-22T12:26:11;95176.75;;;23.77;44.07
19457;BME280;9867;48.094;11.478;2023-07-22T12:28:39;95183.06;;;23.42;45.49
19457;BME280;9867;48.094;11.478;2023-07-22T12:31:07;95175.56;;;23.88;44.33
19457;BME280;9867;48.094;11.478;2023-07-22T12:33:36;95166.00;;;24.64;42.10
19457;BME280;9867;48.094;11.478;2023-07-22T12:36:04;95170.72;;;24.80;44.01
19457;BME280;9867;48.094;11.478;2023-07-22T12:38:32;95180.13;;;24.68;43.79
19457;BME280;9867;48.094;11.478;2023-07-22T12:41:00;95169.13;;;24.23;44.77
19457;BME280;9867;48.094;11.478;2023-07-22T12:43:33;95176.59;;;24.11;44.88
19457;BME280;9867;48.094;11.478;2023-07-22T12:46:01;95155.16;;;24.52;43.74
19457;BME280;9867;48.094;11.478;2023-07-22T12:48:29;95161.38;;;25.12;41.91
19457;BME280;9867;48.094;11.478;2023-07-22T12:50:58;95155.88;;;25.27;42.28
19457;BME280;9867;48.094;11.478;2023-07-22T12:53:26;95155.78;;;25.32;40.19
19457;BME280;9867;48.094;11.478;2023-07-22T12:55:58;95172.22;;;25.05;40.01
19457;BME280;9867;48.094;11.478;2023-07-22T12:58:26;95156.19;;;25.72;40.94
19457;BME280;9867;48.094;11.478;2023-07-22T13:00:55;95159.56;;;26.13;40.71
19457;BME280;9867;48.094;11.478;2023-07-22T13:03:23;95172.22;;;26.25;39.37